Tiempo atmosférico en la estación meteorológica de Jerez de la Frontera Aeropuerto, Cádiz (27 m.)



Fecha
DESCASC
Temp. máxima en grados centígrados (hora)
DESCASC
Temp. mínima en grados centígrados (hora)
DESCASC
Temp. media en grados centígrados
DESCASC
Racha de viento máxima en m/sg (hora)
DESCASC
Velocidad máxima media en intervalos de 10 minutos(hora)
DESCASC
Precipitaciones diarias en mm
DESCASC
Precipitaciones de 00:00 a 06:00 en mm
DESCASC
Precipitaciones de 06:00 a 12:00 en mm
DESCASC
Precipitaciones de 12:00 a 18:00 en mm
DESCASC
Precipitaciones de 18:00 a 24:00 en mm
DESCASC
13-10-2019 31.4 (16:50) 19.6 (08:20) 25.5 8.89 (23:50) 5.56 (18:50) 0 0 0 0 0
12-10-2019 30.3 (16:00) 16.9 (06:50) 23.6 11.67 (16:20) 8.89 (19:20) -- -- 0 0 0
11-10-2019 29.8 (14:40) 18.2 (09:00) 24 10.28 (16:40) 6.67 (16:40) 0 0 0 0 0
10-10-2019 33.5 (16:00) 15.3 (00:00) 24.4 11.67 (21:20) 8.06 (21:20) 0 0 0 0 0
09-10-2019 33.9 (17:30) 13.6 (00:00) 23.8 6.11 (18:30) 4.17 (18:40) 0 0 0 0 0
08-10-2019 34.1 (15:40) 13.9 (00:00) 24 9.17 (19:20) 5.83 (17:50) 0 0 0 0 0
07-10-2019 34.7 (16:50) 11.1 (00:00) 22.9 10.83 (19:30) 5 (18:20) 0 0 0 0 0
06-10-2019 32.3 (16:50) 12.2 (00:00) 22.2 7.78 (17:00) 5.28 (18:00) 0 0 0 0 0
05-10-2019 30 (16:00) 13 (00:00) 21.5 8.89 (17:40) 5.83 (18:00) -- 0 0 0 --
04-10-2019 30.2 (16:30) 12.3 (00:00) 21.3 8.33 (17:00) 5 (16:50) 0 0 0 0 0
03-10-2019 28.3 (14:30) 10.8 (00:00) 19.5 10.83 (15:20) 6.39 (17:30) 0 0 0 0 0
02-10-2019 27.3 (16:00) 12.3 (00:00) 19.8 8.89 (17:20) 6.67 (19:30) 0 0 0 0 0
01-10-2019 30.3 (15:10) 12.1 (00:00) 21.2 12.5 (17:40) 8.06 (17:20) 0 0 0 0 0
30-09-2019 34.1 (16:50) 16.2 (00:00) 25.1 7.22 (18:40) 4.44 (18:40) 0 0 0 0 0
29-09-2019 32.6 (14:40) 12.4 (00:00) 22.5 8.33 (16:20) 5.83 (16:20) 0 0 0 0 0
28-09-2019 35.7 (16:50) 11.9 (00:00) 23.8 8.89 (17:50) 5.56 (18:10) 0 0 0 0 0
27-09-2019 31.9 (17:50) 12.7 (00:00) 22.3 8.89 (18:50) 4.72 (16:50) 0 0 0 0 0
26-09-2019 32.8 (16:20) 11.1 (00:00) 21.9 -- (--) -- (--) 0 0 0 0 0
25-09-2019 30.9 (15:50) 15.8 (00:00) 23.3 8.33 (11:00) 5.56 (11:20) 0 0 0 0 0
24-09-2019 33.8 (17:00) 11.3 (00:00) 22.5 10.83 (17:30) 6.39 (17:40) 0 0 0 0 0
23-09-2019 30.9 (16:50) 11.8 (00:00) 21.3 9.72 (12:00) 5.83 (11:20) -- 0 0 0 --
22-09-2019 27.3 (16:30) 18 (00:00) 22.6 8.89 (12:30) 5.83 (17:20) 2.6 0 2.6 0 0
21-09-2019 25.7 (13:50) 18.1 (00:00) 21.9 7.78 (17:30) 5.28 (17:30) 0.1 0 0 0.1 0
20-09-2019 27.4 (15:50) 16 (00:00) 21.7 9.17 (14:50) 6.67 (15:50) 0 0 0 0 0
19-09-2019 30.1 (16:10) 14.5 (00:00) 22.3 8.33 (17:50) 5.28 (17:50) 0 0 0 0 0
18-09-2019 29.6 (15:50) 14.8 (00:00) 22.2 -- (--) -- (--) 0 0 0 0 0
17-09-2019 32.5 (15:20) 16 (00:00) 24.3 -- (--) -- (--) 0 0 0 0 0
16-09-2019 -- (--) -- (--) -- -- (--) -- (--) -- 0 -- -- 0

Gráficas

Temp. máximas Temp. mínimas Temp. medias Precipitaciones Rachas de viento máximas Velocidades máximas media en intervalos de 10 minutos

Datos horarios

Fecha y hora oficial Temperatura (ºC) Velocidad del viento (km/h) Dirección del viento Racha (km/h) Dirección de racha Precipitación (mm) Presión (hPa) Tendencia (hPa) Humedad (%)
2019-10-15 23:00:00 13.9 5 Norte 17 Noroeste 0 1018.8 1.1 74
2019-10-15 22:00:00 15.5 9 Oeste 17 Noroeste 0 1018.3 0.6 67
2019-10-15 21:00:00 16 10 Oeste 17 Oeste 0 1018.2 0.7 62
2019-10-15 20:00:00 17.2 6 Norte 18 Norte 0 1017.7 0.1 44
2019-10-15 19:00:00 20.4 14 Norte 24 Norte 0 1017.7 -0.4 34
2019-10-15 18:00:00 22 17 Norte 33 Oeste 0 1017.5 -1.1 31
2019-10-15 17:00:00 22.1 14 Norte 30 Norte 0 1017.6 -1.7 31
2019-10-15 16:00:00 21.8 18 Norte 30 Norte 0 1018.1 -1.7 31
2019-10-15 15:00:00 21.9 19 Norte 33 Norte 0 1018.6 -1.6 33
2019-10-15 14:00:00 20.6 19 Norte 28 Norte 0 1019.3 -0.7 38
2019-10-15 13:00:00 19.7 15 Norte 28 Norte 0 1019.8 0.2 46
2019-10-15 12:00:00 17.7 22 Norte 30 Norte 0 1020.2 1.3 56
2019-10-15 11:00:00 15.6 14 Norte 24 Norte 0 1020 1.5 74
2019-10-15 10:00:00 12.8 12 Norte 21 Norte 0 1019.6 1.3 93
2019-10-15 09:00:00 9.2 0 Calma 5 Noroeste 0 1018.9 0.7 96
2019-10-15 08:00:00 10 3 Oeste 13 Noroeste 0 1018.5 0.2 95
2019-10-15 07:00:00 11.2 6 Norte 18 Norte 0 1018.3 -0.1 93
2019-10-15 06:00:00 11 8 Noroeste 15 Noroeste 0 1018.2 -0.1 91
2019-10-15 05:00:00 11.8 11 Norte 13 Norte -- 1018.3 0 89
2019-10-15 04:00:00 11.7 5 Este 15 Norte 0 1018.4 0.2 89
2019-10-15 03:00:00 13.2 2 Norte 18 Oeste -- 1018.3 0.2 81
2019-10-15 02:00:00 14.5 11 Oeste 15 Oeste 0 1018.3 0.8 77
2019-10-15 01:00:00 15.3 11 Noroeste 17 Noroeste 0 1018.2 1.4 79
2019-10-15 00:00:00 16.7 10 Oeste 17 Noroeste 0 1018.1 1.8 77
2019-10-14 23:00:00 17.6 11 Oeste 17 Oeste 0 1017.5 1.6 81
2019-10-14 22:00:00 18.5 9 Oeste 28 Oeste 0 1016.8 1.4 82
2019-10-14 21:00:00 19.8 18 Oeste 30 Oeste 0 1016.3 1.2 75
2019-10-14 20:00:00 20.4 20 Oeste 35 Oeste 0 1015.9 1.1 74
2019-10-14 19:00:00 21.4 26 Sudoeste 45 Sudoeste 0 1015.4 0.7 60
2019-10-14 18:00:00 22.3 29 Sudoeste 50 Sudoeste 0 1015.1 0.5 55
2019-10-14 17:00:00 22.7 31 Sudoeste 46 Sudoeste 0 1014.8 -0.3 55
2019-10-14 16:00:00 22.9 24 Oeste 35 Sudoeste 0 1014.7 -0.2 60
2019-10-14 15:00:00 21.3 22 Oeste 33 Oeste 0.3 1014.6 -0.1 72
2019-10-14 14:00:00 19.5 14 Sudoeste 30 Oeste 0.9 1015.1 0.8 91
2019-10-14 13:00:00 20.6 14 Oeste 35 Oeste 0.1 1014.9 1.1 80
2019-10-14 12:00:00 21 15 Oeste 26 Oeste 0 1014.7 2.1 73
2019-10-14 11:00:00 20.7 14 Oeste 26 Oeste 0 1014.3 2 77
2019-10-14 10:00:00 19.5 14 Oeste 24 Sudoeste 0 1013.8 2.3 87
2019-10-14 09:00:00 18.9 14 Sudoeste 26 Sudoeste 0 1012.6 1 93
2019-10-14 08:00:00 18.9 18 Sudoeste 37 Sudoeste 2 1012.3 1.1 93
2019-10-14 07:00:00 20.4 16 Sur 32 Sur 0 1011.5 0.9 84
2019-10-14 06:00:00 20.8 27 Sur 39 Sudoeste 0 1011.6 1.3 80
2019-10-14 05:00:00 20.5 24 Sudoeste 33 Sudoeste 0 1011.2 0.7 88
2019-10-14 04:00:00 18.9 6 Sur 11 Sur 0 1010.6 -0.1 89
2019-10-14 03:00:00 18.6 7 Sur 11 Sur 0 1010.3 0 85
2019-10-14 02:00:00 19.1 6 Sur 17 Sudoeste 0 1010.5 0.9 83
2019-10-14 01:00:00 21 13 Sudoeste 22 Sur 0 1010.7 1.7 78
2019-10-14 00:00:00 22.2 15 Sur 32 Sur 0 1010.3 1.1 69
2019-10-13 23:00:00 22.7 14 Sur 22 Sur 0 1009.6 0.7 69
2019-10-13 22:00:00 23.6 9 Sur 18 Sur 0 1009 0.4 65
2019-10-13 21:00:00 24.1 2 Este 30 Sur 0 1009.2 0.1 67
2019-10-13 20:00:00 26.4 17 Sur 28 Sur 0 1008.9 -0.6 51
2019-10-13 19:00:00 29.3 18 Sur 30 Sur 0 1008.6 -1.3 43
2019-10-13 18:00:00 30.7 13 Sudeste 26 Sudeste 0 1009.1 -1.2 44
2019-10-13 17:00:00 31.2 13 Sur 26 Sudeste 0 1009.5 -1.9 42
2019-10-13 16:00:00 31 13 Sur 22 Sur 0 1009.9 -2.6 42
2019-10-13 15:00:00 30 11 Sudeste 22 Sur 0 1010.3 -3.1 45
2019-10-13 14:00:00 27.8 12 Este 22 Este 0 1011.4 -2.1 57
2019-10-13 13:00:00 26 13 Este 26 Sudeste 0 1012.5 -0.6 62
2019-10-13 12:00:00 24 10 Este 18 Este 0 1013.4 0.6 70
2019-10-13 11:00:00 21.6 10 Sudeste 22 Sudeste 0 1013.5 1 79
2019-10-13 10:00:00 20.8 8 Este 13 Este 0 1013.1 0.8 83
2019-10-13 09:00:00 19.6 5 Este 9 Este 0 1012.8 0.6 88
2019-10-13 08:00:00 19.9 5 Sur 15 Sudeste 0 1012.5 0.2 88
2019-10-13 07:00:00 20.6 9 Sudeste 13 Sudeste 0 1012.3 -0.4 85
2019-10-13 06:00:00 20.5 7 Sur 9 Sur 0 1012.2 -0.8 86
2019-10-13 05:00:00 20.3 4 Este 5 Este 0 1012.3 -1.1 87
2019-10-13 04:00:00 20.3 0 Calma 4 Sudeste 0 1012.7 -0.8 87
2019-10-13 03:00:00 20.4 0 Calma 9 Sudoeste 0 1013 -0.6 85
2019-10-13 02:00:00 20.2 7 Sudoeste 11 Sudoeste 0 1013.4 0.1 87
2019-10-13 01:00:00 20.4 8 Sudoeste 13 Sudoeste 0 1013.5 0.5 88
2019-10-13 00:00:00 20.7 9 Sudoeste 18 Sudoeste 0 1013.6 1.1 89
2019-10-12 23:00:00 21.5 11 Sudoeste 21 Sudoeste 0 1013.3 1.4 85
2019-10-12 22:00:00 21 10 Sudoeste 26 Sur 0 1013 1.8 89
2019-10-12 21:00:00 21.8 21 Sudoeste 35 Sudoeste 0 1012.5 1.5 85
2019-10-12 20:00:00 22.6 27 Sudoeste 41 Sur 0 1011.9 1.1 83
2019-10-12 19:00:00 26.2 28 Sudoeste 39 Sudoeste 0 1011.2 0.3 65
2019-10-12 18:00:00 27.8 23 Sudoeste 42 Sur 0 1011 -0.3 58
2019-10-12 17:00:00 29.8 24 Sur 42 Sudeste 0 1010.8 -1.8 47
2019-10-12 16:00:00 30.1 26 Sur 41 Sur 0 1010.9 -1.8 46
2019-10-12 15:00:00 29.9 23 Sur 39 Sur 0 1011.3 -1.2 47
2019-10-12 14:00:00 29.5 26 Sur 39 Sur 0 1012.6 0.1 48
2019-10-12 13:00:00 28.6 20 Sudeste 33 Sudeste 0 1012.7 1.1 52
2019-10-12 12:00:00 27.7 8 Sudeste 17 Sudeste 0 1012.5 1.1 52
2019-10-12 11:00:00 24.2 4 Noroeste 9 Norte 0 1012.5 1.5 63
2019-10-12 10:00:00 21 9 Norte 13 Norte 0 1011.6 0.4 74
2019-10-12 09:00:00 18.5 8 Oeste 17 Oeste 0 1011.4 -0.1 79
2019-10-12 08:00:00 17.6 3 Nordeste 8 Nordeste 0 1011 -0.4 85
2019-10-12 07:00:00 17 5 Norte 9 Norte 0 1011.2 -0.5 85
2019-10-12 06:00:00 18.2 6 Este 8 Este 0 1011.5 -0.8 85
2019-10-12 05:00:00 19.2 9 Norte 11 Norte 0 1011.4 -1.1 78
2019-10-12 04:00:00 19.7 5 Norte 13 Sur 0 1011.7 -2.1 81
2019-10-12 03:00:00 20.8 4 Sur 11 Nordeste 0 1012.3 -1.4 78
2019-10-12 02:00:00 21.2 11 Nordeste 15 Nordeste -- 1012.5 -1.3 78
2019-10-12 01:00:00 21.5 9 Sur 13 Sur 0 1013.8 0.3 75
2019-10-12 00:00:00 21.8 8 Este 17 Sudeste 0 1013.7 0.7 76
2019-10-11 23:00:00 22.7 11 Sudeste 21 Sudeste 0 1013.8 0.7 73
2019-10-11 22:00:00 22.8 8 Sudeste 17 Sur 0 1013.5 0.9 70
2019-10-11 21:00:00 23.4 9 Sur 21 Sur 0 1013 0.6 67
2019-10-11 20:00:00 25.1 11 Sur 28 Sur 0 1013.1 0.3 61
2019-10-11 19:00:00 26.9 10 Sur 22 Sur 0 1012.6 -1 54
2019-10-11 18:00:00 28 15 Sudeste 32 Sudeste 0 1012.4 -1.7 50
2019-10-11 17:00:00 27.8 18 Sudeste 37 Sudeste 0 1012.8 -2.2 50
2019-10-11 16:00:00 28.9 19 Sudeste 35 Sudeste 0 1013.6 -1.9 47
2019-10-11 15:00:00 29 23 Sur 35 Sudeste 0 1014.1 -1.1 46
2019-10-11 14:00:00 28.9 15 Sudeste 30 Sur 0 1015 -0.5 46
2019-10-11 13:00:00 26.2 6 Sudoeste 18 Nordeste 0 1015.5 0.4 47
2019-10-11 12:00:00 25.1 3 Oeste 9 Norte 0 1015.2 0.9 53
2019-10-11 11:00:00 22.3 4 Oeste 11 Oeste 0 1015.5 1.4 61
2019-10-11 10:00:00 19 0 Calma 8 Sur 0 1015.1 1 74
2019-10-11 09:00:00 18.3 2 Sudoeste 15 Oeste 0 1014.3 0.7 75
2019-10-11 08:00:00 18.9 9 Oeste 13 Oeste 0 1014.1 0.8 68
2019-10-11 07:00:00 19.3 0 Calma 13 Norte 0 1014.1 0.9 65
2019-10-11 06:00:00 21.6 9 Norte 24 Nordeste 0 1013.6 0.2 56
2019-10-11 05:00:00 22.5 17 Nordeste 30 Nordeste 0 1013.3 -0.1 57
2019-10-11 04:00:00 22.5 20 Nordeste 28 Nordeste 0 1013.2 -0.7 58
2019-10-11 03:00:00 22.8 22 Este 33 Este 0 1013.4 -0.5 59
2019-10-11 02:00:00 22.9 20 Este 30 Este 0 1013.4 -0.4 56
2019-10-11 01:00:00 21 8 Este 17 Este 0 1013.9 0.7 65
2019-10-11 00:00:00 21.4 6 Sudeste 18 Sudeste 0 1013.9 1.2 66
2019-10-10 23:00:00 22.7 12 Sudeste 37 Este 0 1013.8 1.4 63
2019-10-10 22:00:00 23.7 26 Sudeste 42 Sudeste 0 1013.2 1.2 58
2019-10-10 21:00:00 24.4 21 Sudeste 39 Este 0 1012.7 0.8 57
2019-10-10 20:00:00 26.5 17 Sudeste 39 Sudeste 0 1012.4 0.5 51
2019-10-10 19:00:00 29.2 25 Este 35 Este 0 1012 0 43
2019-10-10 18:00:00 31.7 15 Este 24 Este 0 1011.9 -0.7 40
2019-10-10 17:00:00 32.3 16 Este 30 Este 0 1011.9 -1.6 39
2019-10-10 16:00:00 33.2 8 Sudoeste 17 Sudoeste 0 1012 -1.9 33
2019-10-10 15:00:00 32.4 8 Sudoeste 17 Sudoeste 0 1012.6 -1.6 32
2019-10-10 14:00:00 31 11 Sur 17 Sur 0 1013.5 -0.8 31
2019-10-10 13:00:00 29.3 6 Este 15 Este 0 1013.9 0.1 35
2019-10-10 12:00:00 27.1 3 Noroeste 13 Norte 0 1014.2 1 41
2019-10-10 11:00:00 24.7 8 Oeste 17 Noroeste 0 1014.3 1.5 51
2019-10-10 10:00:00 19.9 6 Noroeste 9 Norte 0 1013.8 1.4 72
2019-10-10 09:00:00 15.9 3 Sur 13 Norte 0 1013.2 1 83
2019-10-10 08:00:00 16 10 Norte 13 Noroeste 0 1012.8 0.7 81
2019-10-10 07:00:00 15.9 7 Norte 11 Este 0 1012.4 0.2 83
2019-10-10 06:00:00 16.1 9 Nordeste 9 Nordeste 0 1012.2 -0.4 84
2019-10-10 05:00:00 16.1 7 Nordeste 9 Norte 0 1012.1 -0.6 82
2019-10-10 04:00:00 16.2 5 Este 8 Este 0 1012.2 -0.6 85
2019-10-10 03:00:00 16.5 4 Nordeste 5 Nordeste 0 1012.6 -0.2 81
2019-10-10 02:00:00 18 0 Calma 13 Sur 0 1012.7 0.2 79
2019-10-10 01:00:00 19 7 Sur 8 Sur 0 1012.8 0.4 78
2019-10-10 00:00:00 19.8 5 Sur 13 Sur 0 1012.8 0.9 71
2019-10-09 23:00:00 20.5 7 Sur 11 Sur 0 1012.5 1.1 73
2019-10-09 22:00:00 21.3 8 Sur 13 Sur 0 1012.4 1.3 72
2019-10-09 21:00:00 23.3 10 Sur 15 Sur 0 1011.9 1.1 69
2019-10-09 20:00:00 27.7 12 Sudoeste 18 Oeste 0 1011.4 0.2 46
2019-10-09 19:00:00 31 14 Oeste 22 Oeste 0 1011.1 -0.4 37
2019-10-09 18:00:00 33.7 4 Sudoeste 17 Oeste 0 1010.8 -1.1 27
2019-10-09 17:00:00 33.5 8 Sur 13 Sudoeste 0 1011.2 -1.5 29
2019-10-09 16:00:00 32.8 8 Sudoeste 15 Sur 0 1011.5 -2 31
2019-10-09 15:00:00 32 7 Sudeste 15 Este 0 1011.9 -1.9 33
2019-10-09 14:00:00 30.4 6 Sudeste 13 Este 0 1012.7 -1.1 37
2019-10-09 13:00:00 28.5 5 Nordeste 15 Noroeste 0 1013.5 0 46
2019-10-09 12:00:00 26 4 Oeste 13 Oeste 0 1013.8 0.8 57
2019-10-09 11:00:00 23.6 9 Noroeste 15 Noroeste 0 1013.8 1.1 68
2019-10-09 10:00:00 19.2 3 Nordeste 5 Norte 0 1013.5 1.1 72
2019-10-09 09:00:00 14.7 0 Calma 5 Nordeste 0 1013 0.7 86
2019-10-09 08:00:00 14.1 0 Calma 9 Noroeste 0 1012.7 0.3 89
2019-10-09 07:00:00 14.5 5 Noroeste 8 Norte 0 1012.4 -0.1 85
2019-10-09 06:00:00 14.7 5 Nordeste 8 Nordeste 0 1012.3 -0.9 88
2019-10-09 05:00:00 15 5 Nordeste 8 Nordeste 0 1012.4 -0.6 85
2019-10-09 04:00:00 16.2 6 Sudeste 11 Sudeste 0 1012.5 -0.7 80
2019-10-09 03:00:00 17.3 5 Sudoeste 8 Sudoeste 0 1013.2 -0.4 77
2019-10-09 02:00:00 17.9 3 Norte 17 Norte 0 1013 0 79
2019-10-09 01:00:00 18.1 6 Norte 9 Norte 0 1013.2 0.6 73
2019-10-09 00:00:00 19.3 5 Norte 13 Noroeste 0 1013.6 1 66
2019-10-08 23:00:00 21.9 5 Este 17 Este 0 1013 0.6 61
2019-10-08 22:00:00 23.9 13 Sudeste 32 Sudeste 0 1012.6 0.5 55
2019-10-08 21:00:00 24.8 17 Sudeste 30 Sudeste 0 1012.6 0.8 51
2019-10-08 20:00:00 26.7 14 Sur 33 Sur 0 1012.4 0.7 43
2019-10-08 19:00:00 29.3 19 Sur 32 Sur -- 1012.1 0 37
2019-10-08 18:00:00 31.4 18 Sur 30 Sur 0 1011.8 -0.9 33
2019-10-08 17:00:00 33.3 15 Sur 26 Sudeste 0 1011.7 -1.8 29
2019-10-08 16:00:00 33.6 9 Sudoeste 18 Sur 0 1012.1 -2.1 30
2019-10-08 15:00:00 32.8 6 Noroeste 13 Norte 0 1012.7 -1.8 28
2019-10-08 14:00:00 31.9 7 Este 17 Sudeste 0 1013.5 -1.2 31
2019-10-08 13:00:00 29.9 6 Noroeste 13 Norte 0 1014.2 0 36
2019-10-08 12:00:00 27.9 6 Nordeste 11 Nordeste 0 1014.5 1 42
2019-10-08 11:00:00 24.3 4 Nordeste 11 Noroeste 0 1014.7 1.7 48
2019-10-08 10:00:00 20.3 3 Noroeste 11 Norte 0 1014.2 1.7 58
2019-10-08 09:00:00 15.2 10 Noroeste 13 Noroeste 0 1013.5 1.3 75
2019-10-08 08:00:00 14.4 5 Norte 8 Norte 0 1013 0.5 76
2019-10-08 07:00:00 14.5 4 Noroeste 11 Norte 0 1012.5 0.4 77
2019-10-08 06:00:00 14.9 8 Norte 13 Sur 0 1012.2 -0.2 75
2019-10-08 05:00:00 15.9 12 Sur 17 Sur 0 1012.5 -0.2 71
2019-10-08 04:00:00 15.7 0 Calma 8 Nordeste 0 1012.1 -0.9 70
2019-10-08 03:00:00 15.8 0 Calma -- -- 0 1012.4 -0.8 69
2019-10-08 02:00:00 15.8 5 Nordeste 5 Nordeste 0 1012.7 -0.6 71
2019-10-08 01:00:00 17 0 Calma 9 Nordeste 0 1013 0 72
2019-10-08 00:00:00 17.9 3 Sur 9 Nordeste 0 1013.2 0.6 73
2019-10-07 23:00:00 20 7 Nordeste 13 Noroeste 0 1013.3 1 72
2019-10-07 22:00:00 21.2 6 Norte 18 Oeste 0 1013 0.8 58
2019-10-07 21:00:00 24.6 11 Oeste 22 Oeste 0 1012.6 0.7 42
2019-10-07 20:00:00 27.8 11 Oeste 39 Oeste 0 1012.3 0.1 35
2019-10-07 19:00:00 30 18 Oeste 33 Noroeste 0 1012.2 -0.3 34
2019-10-07 18:00:00 33.9 16 Norte 28 Norte 0 1011.9 -1.2 21
2019-10-07 17:00:00 34.5 13 Noroeste 28 Noroeste 0 1012.2 -1.7 20
2019-10-07 16:00:00 34 12 Norte 24 Norte 0 1012.5 -2 21
2019-10-07 15:00:00 33.5 12 Norte 28 Norte 0 1013.1 -1.7 23
2019-10-07 14:00:00 31.7 11 Norte 18 Norte 0 1013.9 -1.2 28
2019-10-07 13:00:00 28.5 7 Noroeste 22 Norte 0 1014.5 -0.1 37
2019-10-07 12:00:00 24.2 5 Oeste 11 Oeste 0 1014.8 0.7 47
2019-10-07 11:00:00 20.6 3 Sudeste 8 Sur 0 1015.1 1.4 60
2019-10-07 10:00:00 16 4 Sur 5 Sur 0 1014.6 1.4 74
2019-10-07 09:00:00 11.8 4 Sur 9 Sur 0 1014.1 0.8 88
2019-10-07 08:00:00 11.6 0 Calma 5 Noroeste 0 1013.7 0 88
2019-10-07 07:00:00 11.5 0 Calma 8 Nordeste 0 1013.2 -0.9 85
2019-10-07 06:00:00 11.7 6 Nordeste 9 Nordeste 0 1013.3 -1.5 87
2019-10-07 05:00:00 12.2 2 Norte 8 Norte 0 1013.7 -1.4 84
2019-10-07 04:00:00 12.6 7 Norte 9 Nordeste 0 1014.1 -1.5 85
2019-10-07 03:00:00 12.7 4 Nordeste -- -- 0 1014.8 -0.9 87
2019-10-07 02:00:00 14.3 3 Nordeste 5 Nordeste 0 1015.1 -0.6 87
2019-10-07 01:00:00 14.6 0 Calma 5 Este 0 1015.6 0.1 84
2019-10-07 00:00:00 16.3 4 Este -- -- 0 1015.7 0.8 80
2019-10-06 23:00:00 17.9 5 Este 8 Este 0 1015.7 1.3 70
2019-10-06 22:00:00 20 7 Oeste 13 Oeste 0 1015.5 1.1 72
2019-10-06 21:00:00 21.4 8 Oeste 22 Oeste 0 1014.9 0.5 54
2019-10-06 20:00:00 24.8 12 Oeste 24 Oeste -- 1014.4 0 42
2019-10-06 19:00:00 27.7 17 Oeste 26 Oeste 0 1014.4 -0.4 42
2019-10-06 18:00:00 29.8 19 Sudoeste 28 Sudoeste 0 1014.4 -0.9 42
2019-10-06 17:00:00 31.5 19 Sudoeste 28 Oeste 0 1014.4 -1.7 40
2019-10-06 16:00:00 31.1 4 Este 15 Sudoeste 0 1014.8 -1.9 35
2019-10-06 15:00:00 29.5 4 Oeste 13 Sudoeste 0 1015.3 -1.4 38
2019-10-06 14:00:00 28 6 Sudoeste 11 Sudoeste 0 1016.1 -0.4 44
2019-10-06 13:00:00 25.4 5 Noroeste 13 Oeste 0 1016.7 0.6 55
2019-10-06 12:00:00 22.7 6 Sudoeste 13 Sudoeste 0 1016.7 1 68
2019-10-06 11:00:00 19.7 6 Sur 15 Sur 0 1016.5 1.6 86
2019-10-06 10:00:00 15.8 6 Sudeste 11 Sudeste 0 1016.1 1.6 100
2019-10-06 09:00:00 14.3 0 Calma 9 Este 0 1015.7 1.4 99
2019-10-06 08:00:00 13 6 Sudeste 9 Sudeste 0 1014.9 0.6 98
2019-10-06 07:00:00 12.4 3 Nordeste 8 Este 0 1014.5 0 97
2019-10-06 06:00:00 13.2 6 Este 9 Este 0 1014.3 -0.5 96
2019-10-06 05:00:00 13.1 4 Este 8 Este 0 1014.3 -0.3 93
2019-10-06 04:00:00 13.9 6 Este 8 Este 0 1014.5 -0.3 95
2019-10-06 03:00:00 14.2 5 Este 5 Nordeste 0 1014.8 0.2 94
2019-10-06 02:00:00 15.5 5 Este 8 Sudeste 0 1014.6 -0.1 88
2019-10-06 01:00:00 16.2 0 Calma 8 Este 0 1014.8 0.5 86
2019-10-06 00:00:00 17.3 7 Sudeste 9 Sudeste 0 1014.6 1 85
2019-10-05 23:00:00 18.3 3 Sur 8 Sudoeste 0 1014.7 1.5 86
2019-10-05 22:00:00 19.2 5 Sur 13 Sudoeste -- 1014.3 1.4 81
2019-10-05 21:00:00 20.1 6 Sudoeste 18 Oeste 0 1013.6 0.9 68
2019-10-05 20:00:00 22.6 13 Oeste 28 Oeste 0 1013.2 0.4 58
2019-10-05 19:00:00 26.6 18 Oeste 30 Oeste 0 1012.9 0.1 45
2019-10-05 18:00:00 25.5 21 Oeste 32 Oeste 0 1012.7 -0.4 51
2019-10-05 17:00:00 27.6 19 Oeste 30 Oeste 0 1012.8 -1 49
2019-10-05 16:00:00 29.6 17 Oeste 28 Noroeste 0 1012.8 -1.4 45
2019-10-05 15:00:00 28.8 9 Oeste 18 Sudoeste 0 1013.1 -1.3 44
2019-10-05 14:00:00 27.3 9 Oeste 17 Oeste 0 1013.8 -0.4 52
2019-10-05 13:00:00 24.6 7 Sudoeste 15 Sudoeste 0 1014.2 0.5 63
2019-10-05 12:00:00 22.6 11 Sur 15 Sudeste 0 1014.4 1.2 73
2019-10-05 11:00:00 17.9 8 Sudeste 13 Sur 0 1014.2 1.6 100
2019-10-05 10:00:00 16.6 6 Sudeste 9 Sudeste 0 1013.7 1.3 100
2019-10-05 09:00:00 15.9 3 Este 5 Nordeste 0 1013.2 0.7 100
2019-10-05 08:00:00 15 3 Este 5 Sudeste 0 1012.6 0.1 100
2019-10-05 07:00:00 14.2 0 Calma 5 Sur 0 1012.4 -0.4 99
2019-10-05 06:00:00 13.2 0 Calma 4 Este 0 1012.5 -0.6 97
2019-10-05 05:00:00 13.5 -- -- -- -- 0 1012.5 -0.9 94
2019-10-05 04:00:00 15 4 Norte 9 Este 0 1012.8 -1 95
2019-10-05 03:00:00 15.8 6 Este 9 Este 0 1013.1 -0.9 94
2019-10-05 02:00:00 15.6 7 Este 11 Este 0 1013.4 -0.5 94
2019-10-05 01:00:00 15.9 6 Este 8 Este 0 1013.8 -0.1 92
2019-10-05 00:00:00 17.6 4 Sudeste 8 Sur 0 1014 0.5 90
2019-10-04 23:00:00 19 3 Sudoeste 11 Sudoeste 0 1013.9 0.9 87
2019-10-04 22:00:00 20.6 8 Sudoeste 17 Oeste 0 1013.9 1.2 82
2019-10-04 21:00:00 22.7 14 Oeste 21 Oeste 0 1013.5 0.9 69
2019-10-04 20:00:00 24.9 11 Oeste 24 Sudoeste 0 1013 0.1 59
2019-10-04 19:00:00 27.2 14 Oeste 28 Oeste 0 1012.7 -0.5 49
2019-10-04 18:00:00 28.8 17 Oeste 26 Oeste 0 1012.6 -1.6 45
2019-10-04 17:00:00 29.7 17 Oeste 30 Oeste 0 1012.9 -2.2 38
2019-10-04 16:00:00 29.6 11 Oeste 22 Oeste 0 1013.2 -2.2 40
2019-10-04 15:00:00 28.3 9 Sudoeste 18 Oeste 0 1014.2 -1.5 48
2019-10-04 14:00:00 26.2 5 Sudoeste 15 Sudoeste 0 1015.1 -0.7 52
2019-10-04 13:00:00 24.1 5 Sudoeste 13 Sudoeste 0 1015.4 -0.3 63
2019-10-04 12:00:00 21.2 4 Sudeste 11 Sudeste 0 1015.7 0.5 78
2019-10-04 11:00:00 18.8 5 Sur 11 Sur 0 1015.8 0.9 85
2019-10-04 10:00:00 16.1 4 Este 8 Este 0 1015.7 1.1 83
2019-10-04 09:00:00 14.4 5 Nordeste 8 Nordeste 0 1015.2 0.4 88
2019-10-04 08:00:00 13.4 5 Norte 9 Este 0 1014.9 0.1 91
2019-10-04 07:00:00 12.8 8 Este 9 Este 0 1014.6 -0.4 92
2019-10-04 06:00:00 12.5 5 Nordeste 9 Nordeste 0 1014.8 -0.7 95
2019-10-04 05:00:00 13.9 5 Este 9 Este 0 1014.8 -1 94
2019-10-04 04:00:00 13.4 7 Este 9 Este 0 1015 -1.3 94
2019-10-04 03:00:00 14.3 5 Este -- -- 0 1015.5 -0.8 97
2019-10-04 02:00:00 14 2 Nordeste 8 Este 0 1015.8 -0.5 94
2019-10-04 01:00:00 15 3 Sudeste -- -- 0 1016.3 0.1 94
2019-10-04 00:00:00 15.6 -- -- -- -- 0 1016.3 0.4 91
2019-10-03 23:00:00 17.7 6 Sudeste 13 Sudeste 0 1016.3 0.4 85
2019-10-03 22:00:00 18.8 9 Sur 13 Sur 0 1016.2 0.5 85
2019-10-03 21:00:00 19.6 8 Sur 18 Sudoeste 0 1015.9 0.1 79
2019-10-03 20:00:00 21.6 17 Sudoeste 26 Sudoeste 0 1015.9 -0.1 68
2019-10-03 19:00:00 24.1 18 Sudoeste 30 Sudoeste 0 1015.7 -0.5 50
2019-10-03 18:00:00 25.5 20 Sudoeste 35 Sudoeste 0 1015.8 -0.5 37
2019-10-03 17:00:00 26.7 21 Sudoeste 33 Sudoeste 0 1016 -1 34
2019-10-03 16:00:00 27.9 18 Oeste 39 Sudoeste 0 1016.2 -1.2 34
2019-10-03 15:00:00 27.6 18 Sudoeste 28 Sudoeste 0 1016.3 -1.4 38
2019-10-03 14:00:00 27.2 13 Sudoeste 22 Sudoeste 0 1017 -0.9 41
2019-10-03 13:00:00 25.2 13 Sur 21 Sudoeste 0 1017.4 0.1 48
2019-10-03 12:00:00 22.5 11 Sur 17 Sur 0 1017.7 0.9 59
2019-10-03 11:00:00 19.5 5 Sur 11 Sur 0 1017.9 1.8 76
2019-10-03 10:00:00 15.6 6 Sudeste 9 Sudeste 0 1017.3 1.5 98
2019-10-03 09:00:00 12.3 0 Calma 8 Sudoeste 0 1016.8 1.4 99
2019-10-03 08:00:00 12 4 Sur 5 Sur 0 1016.1 0.8 97
2019-10-03 07:00:00 11.7 2 Nordeste 5 Nordeste 0 1015.8 0.2 96
2019-10-03 06:00:00 12.9 0 Calma 9 Sur 0 1015.4 -0.4 93
2019-10-03 05:00:00 14.4 6 Sudeste 9 Sudeste 0 1015.3 -0.4 96
2019-10-03 04:00:00 15.4 3 Sur 11 Sudeste 0 1015.6 -0.6 92
2019-10-03 03:00:00 14.4 5 Este 8 Este 0 1015.8 -0.4 94
2019-10-03 02:00:00 14.7 5 Sur 8 Sur 0 1015.7 -0.3 91
2019-10-03 01:00:00 16.6 6 Sur 11 Sur 0 1016.2 0.5 89
2019-10-03 00:00:00 16.8 6 Sudeste 15 Sudeste 0 1016.2 0.7 85
2019-10-02 23:00:00 18.5 11 Sudeste 15 Sudeste 0 1016 0.9 82
2019-10-02 22:00:00 19.1 9 Sur 21 Sur 0 1015.7 0.9 81
2019-10-02 21:00:00 20 13 Sudoeste 30 Sudoeste 0 1015.5 1 77
2019-10-02 20:00:00 21.1 21 Sudoeste 32 Sudoeste 0 1015.1 0.3 70
2019-10-02 19:00:00 23.3 21 Sudoeste 32 Sudoeste 0 1014.8 -0.2 60
2019-10-02 18:00:00 26.5 21 Sudoeste 32 Oeste 0 1014.5 -0.9 44
2019-10-02 17:00:00 26.8 17 Sudoeste 30 Sudoeste 0 1014.8 -1.1 44
2019-10-02 16:00:00 26.9 16 Sudoeste 30 Sudoeste 0 1015 -1.1 41
2019-10-02 15:00:00 25.7 15 Sudoeste 24 Sudoeste 0 1015.4 -1 45
2019-10-02 14:00:00 24.3 14 Oeste 28 Sudoeste 0 1015.9 -0.4 50
2019-10-02 13:00:00 23.4 13 Oeste 28 Sudoeste 0 1016.1 0.2 56
2019-10-02 12:00:00 21.9 9 Oeste 24 Oeste 0 1016.4 1 61
2019-10-02 11:00:00 19.7 11 Oeste 18 Sudoeste 0 1016.3 1.4 67
2019-10-02 10:00:00 16.8 12 Noroeste 17 Noroeste 0 1015.9 1 80
2019-10-02 09:00:00 14 9 Noroeste 17 Noroeste 0 1015.4 0.8 89
2019-10-02 08:00:00 13.2 0 Calma 11 Norte 0 1014.9 0.5 90
2019-10-02 07:00:00 13.6 8 Nordeste 13 Norte 0 1014.9 0.4 88
2019-10-02 06:00:00 15.3 0 Calma 11 Oeste 0 1014.6 -0.5 86
2019-10-02 05:00:00 16.9 5 Norte 17 Oeste 0 1014.4 -0.5 80
2019-10-02 04:00:00 19 13 Oeste 22 Oeste 0 1014.5 -0.4 74
2019-10-02 03:00:00 19.7 15 Oeste 24 Oeste 0 1015.1 0.4 74
2019-10-02 02:00:00 19.9 15 Oeste 22 Oeste 0 1014.9 0.4 74
2019-10-02 01:00:00 20.2 14 Oeste 21 Oeste 0 1014.9 1.1 80
2019-10-02 00:00:00 20.2 0 Calma 9 Oeste 0 1014.7 1.4 81
2019-10-01 23:00:00 21.9 5 Oeste 24 Oeste 0 1014.5 1.4 75
2019-10-01 22:00:00 22.9 15 Oeste 35 Oeste 0 1013.8 1 71
2019-10-01 21:00:00 23.2 20 Oeste 33 Oeste 0 1013.3 0.8 67
2019-10-01 20:00:00 24.2 22 Oeste 39 Oeste 0 1013.1 0.6 62
2019-10-01 19:00:00 26.3 26 Oeste 39 Oeste 0 1012.8 0.1 54
2019-10-01 18:00:00 27.8 28 Oeste 45 Oeste 0 1012.5 -0.5 49
2019-10-01 17:00:00 29.8 24 Oeste 37 Oeste 0 1012.5 -0.9 40
2019-10-01 16:00:00 29.6 24 Oeste 42 Sudoeste 0 1012.7 -1 41
2019-10-01 15:00:00 29.7 21 Oeste 33 Oeste 0 1013 -0.9 43
2019-10-01 14:00:00 29.4 13 Oeste 26 Oeste 0 1013.4 -0.3 42
2019-10-01 13:00:00 27.6 14 Oeste 26 Oeste 0 1013.7 0.6 46
2019-10-01 12:00:00 25.2 9 Oeste 21 Noroeste 0 1013.9 1.4 55
2019-10-01 11:00:00 22.1 10 Noroeste 17 Oeste 0 1013.7 1.5 63
2019-10-01 10:00:00 18.5 3 Sudoeste 8 Sudoeste 0 1013.1 1.3 68
2019-10-01 09:00:00 12.7 5 Este 8 Este 0 1012.5 0.9 77
2019-10-01 08:00:00 12.5 5 Este 8 Nordeste 0 1012.2 0.6 77
2019-10-01 07:00:00 12.6 3 Oeste 9 Sudoeste 0 1011.8 -0.1 74
2019-10-01 06:00:00 12.4 2 Este 5 Este 0 1011.6 -0.8 73
2019-10-01 05:00:00 13 2 Norte 8 Este 0 1011.6 -1 74
2019-10-01 04:00:00 13.6 3 Este 5 Este 0 1011.9 -0.4 74
2019-10-01 03:00:00 14.3 4 Este 5 Nordeste 0 1012.4 0.2 77
2019-10-01 02:00:00 15.1 3 Norte -- -- 0 1012.6 0.5 76
2019-10-01 01:00:00 15.7 3 Nordeste 5 Nordeste 0 1012.3 0.5 68
2019-10-01 00:00:00 17.7 2 Norte 8 Este 0 1012.2 0.6 66
2019-09-30 23:00:00 19.3 5 Norte 11 Norte 0 1012.1 0.6 58
2019-09-30 22:00:00 21.2 4 Noroeste 13 Noroeste 0 1011.8 0.3 54
2019-09-30 21:00:00 23.9 0 Calma 18 Oeste 0 1011.6 0 45
2019-09-30 20:00:00 26.8 13 Oeste 22 Oeste 0 1011.5 -0.3 39
2019-09-30 19:00:00 30.3 16 Oeste 26 Oeste 0 1011.5 -0.8 29
2019-09-30 18:00:00 32.6 13 Oeste 24 Oeste 0 1011.6 -1.3 38
2019-09-30 17:00:00 33.6 10 Oeste 21 Oeste 0 1011.8 -2.1 32
2019-09-30 16:00:00 32.6 5 Noroeste 17 Oeste -- 1012.3 -2.2 31
2019-09-30 15:00:00 31.7 8 Sudoeste 18 Sudoeste 0 1012.9 -2 34
2019-09-30 14:00:00 29.7 3 Nordeste 13 Noroeste 0 1013.9 -1.3 41
2019-09-30 13:00:00 27.3 3 Sur 11 Norte 0 1014.5 -0.4 47
2019-09-30 12:00:00 24.1 4 Nordeste 9 Norte 0 1014.9 0.4 63
2019-09-30 11:00:00 19 5 Nordeste 9 Norte 0 1015.2 0.8 89
2019-09-30 10:00:00 16.5 5 Este 9 Este 0 1014.9 0.9 99
2019-09-30 09:00:00 16.4 5 Sudeste 9 Este 0 1014.5 0.6 99
2019-09-30 08:00:00 16.2 5 Este 13 Este 0 1014.4 0.3 99
2019-09-30 07:00:00 17.2 6 Este 11 Sudeste 0 1014 -0.5 99
2019-09-30 06:00:00 18 6 Sudeste 13 Sur 0 1013.9 -0.8 98
2019-09-30 05:00:00 18.3 8 Sur 11 Sur 0 1014.1 -0.9 98
2019-09-30 04:00:00 18 5 Sudeste 9 Sudeste 0 1014.5 -0.5 97
2019-09-30 03:00:00 18.3 7 Sudeste 11 Sur 0 1014.7 -0.2 94
2019-09-30 02:00:00 19.1 6 Sur 11 Sur 0 1015 0.2 95
2019-09-30 01:00:00 18.7 7 Sur 11 Sudeste 0 1015 0.4 96
2019-09-30 00:00:00 18.8 7 Sur 11 Sur 0 1014.9 1.1 93
2019-09-29 23:00:00 19.8 8 Sudeste 11 Sur 0 1014.8 1.1 90
2019-09-29 22:00:00 20.6 8 Sudeste 15 Sur 0 1014.6 0.9 86
2019-09-29 21:00:00 21.9 10 Sur 17 Sur 0 1013.8 0 81
2019-09-29 20:00:00 24.6 13 Sur 22 Sudoeste 0 1013.7 -0.2 66
2019-09-29 19:00:00 26.9 16 Sudoeste 24 Sudoeste 0 1013.7 -0.3 60
2019-09-29 18:00:00 28.6 19 Oeste 28 Oeste 0 1013.8 -0.7 53
2019-09-29 17:00:00 30 19 Sudoeste 30 Sudoeste 0 1013.9 -1.5 48
2019-09-29 16:00:00 32.3 16 Sur 28 Sudoeste 0 1014 -1.6 41
2019-09-29 15:00:00 32.4 16 Sudoeste 26 Sudoeste 0 1014.5 -1.4 39
2019-09-29 14:00:00 31.9 5 Sudeste 17 Sudeste 0 1015.4 -0.3 33
2019-09-29 13:00:00 29.7 7 Oeste 13 Sur 0 1015.6 0.4 40
2019-09-29 12:00:00 27.6 3 Sudeste 11 Sur 0 1015.9 1 48
2019-09-29 11:00:00 24 4 Sur 11 Sudeste 0 1015.7 1.4 61
2019-09-29 10:00:00 19 3 Nordeste 8 Nordeste 0 1015.2 1.4 70
2019-09-29 09:00:00 13.2 5 Nordeste 8 Nordeste 0 1014.9 1 80
2019-09-29 08:00:00 12.5 3 Nordeste 8 Norte 0 1014.3 0.4 80
2019-09-29 07:00:00 13.4 3 Noroeste 8 Noroeste 0 1013.8 -0.5 80
2019-09-29 06:00:00 13.4 6 Norte -- -- 0 1013.9 -0.6 78
2019-09-29 05:00:00 14 4 Este 8 Este 0 1013.9 -0.6 78
2019-09-29 04:00:00 15 2 Norte 5 Este 0 1014.3 -0.5 76
2019-09-29 03:00:00 15.4 5 Nordeste -- -- 0 1014.5 -0.2 74
2019-09-29 02:00:00 16.2 5 Nordeste 5 Nordeste 0 1014.5 -0.3 74
2019-09-29 01:00:00 16.8 5 Nordeste 9 Nordeste 0 1014.8 0.4 74
2019-09-29 00:00:00 18.2 0 Calma 8 Norte 0 1014.7 0.9 70
2019-09-28 23:00:00 20.2 4 Sur 11 Oeste 0 1014.8 1.2 67
2019-09-28 22:00:00 22.4 9 Oeste 17 Sudoeste 0 1014.4 0.8 57
2019-09-28 21:00:00 25.3 9 Sudoeste 15 Sudoeste 0 1013.8 0.6 46
2019-09-28 20:00:00 28.8 12 Sudoeste 24 Sudoeste 0 1013.6 0.4 35
2019-09-28 19:00:00 31.7 14 Sudoeste 30 Sudoeste 0 1013.6 -0.1 30
2019-09-28 18:00:00 33.9 19 Sudoeste 32 Sudoeste 0 1013.2 -1.1 29
2019-09-28 17:00:00 -- 9 Oeste 26 Oeste 0 1013.2 -1.9 23
2019-09-28 16:00:00 34.7 3 Noroeste 17 Sudoeste 0 1013.7 -2 20
2019-09-28 15:00:00 33.7 8 Norte 15 Oeste 0 1014.3 -1.8 27
2019-09-28 14:00:00 32 5 Oeste 15 Sudoeste 0 1015.1 -0.9 30
2019-09-28 13:00:00 30.1 5 Sudoeste 11 Sur 0 1015.7 0 34
2019-09-28 12:00:00 26.9 5 Oeste 9 Oeste 0 1016.1 0.8 42
2019-09-28 11:00:00 23.6 3 Sur 9 Sur 0 1016 1.3 54
2019-09-28 10:00:00 18.6 0 Calma 4 Nordeste 0 1015.7 1.4 69
2019-09-28 09:00:00 13.7 3 Este 9 Norte 0 1015.3 1.1 85
2019-09-28 08:00:00 12 6 Norte -- -- 0 1014.7 0.5 89
2019-09-28 07:00:00 12.3 0 Calma 5 Este 0 1014.3 0 88
2019-09-28 06:00:00 12.9 5 Norte 5 Norte 0 1014.2 -0.5 86
2019-09-28 05:00:00 13.8 3 Este 9 Nordeste 0 1014.2 -1.1 87
2019-09-28 04:00:00 14.4 5 Este 8 Este 0 1014.3 -1.3 84
2019-09-28 03:00:00 14.7 7 Este 9 Este 0 1014.7 -1 82
2019-09-28 02:00:00 15.1 5 Nordeste 8 Norte 0 1015.3 -0.2 82
2019-09-28 01:00:00 15.6 3 Nordeste 8 Este 0 1015.6 0.6 80
2019-09-28 00:00:00 16.8 4 Este 8 Este 0 1015.7 1.3 77
2019-09-27 23:00:00 18.5 4 Sudeste 5 Este 0 1015.5 1.5 73
2019-09-27 22:00:00 20.6 3 Oeste 11 Noroeste -- 1015 1.1 67
2019-09-27 21:00:00 24.1 9 Oeste 18 Oeste 0 1014.4 0.5 51
2019-09-27 20:00:00 27.1 12 Oeste 22 Oeste 0 1014 -0.1 41
2019-09-27 19:00:00 30.2 14 Oeste 32 Oeste 0 1013.9 -0.6 33
2019-09-27 18:00:00 31.4 14 Oeste 26 Sudoeste 0 1013.9 -1.2 33
2019-09-27 17:00:00 31.4 14 Oeste 26 Noroeste 0 1014.1 -1.6 40
2019-09-27 16:00:00 31 14 Sudoeste 28 Sudoeste 0 1014.5 -1.5 44
2019-09-27 15:00:00 30.4 13 Sudoeste 26 Sudoeste 0 1015.1 -1.2 47
2019-09-27 14:00:00 30.3 12 Sudoeste 21 Sudoeste 0 1015.7 -0.5 45
2019-09-27 13:00:00 28.8 8 Sudoeste 17 Sudoeste 0 1016 0.2 49
2019-09-27 12:00:00 26.7 6 Sudoeste 13 Sudoeste 0 1016.3 0.7 54
2019-09-27 11:00:00 24 3 Norte 8 Norte 0 1016.2 1.1 62
2019-09-27 10:00:00 19.2 0 Calma 5 Nordeste 0 1015.8 0.7 69
2019-09-27 09:00:00 14 0 Calma 8 Este 0 1015.6 0.5 83
2019-09-27 08:00:00 13.7 6 Este 9 Este 0 1015.1 0.2 78
2019-09-27 07:00:00 13.3 5 Este -- -- 0 1015.1 -0.2 78
2019-09-27 06:00:00 13.6 6 Sudeste 8 Este 0 1015.1 -0.4 77
2019-09-27 05:00:00 13.7 3 Nordeste 8 Norte 0 1014.9 -0.6 79
2019-09-27 04:00:00 14.2 3 Este 8 Nordeste 0 1015.3 -0.4 81
2019-09-27 03:00:00 14.9 2 Nordeste 5 Nordeste 0 1015.5 -0.4 80
2019-09-27 02:00:00 15.5 4 Nordeste 8 Este 0 1015.5 0 75
2019-09-27 01:00:00 16.3 5 Nordeste 5 Norte 0 1015.7 0.8 72
2019-09-27 00:00:00 17.9 3 Noroeste -- -- 0 1015.9 1.7 67
2019-09-26 23:00:00 19.5 4 Este 8 Este 0 1015.5 1.5 63
2019-09-26 22:00:00 21.9 4 Oeste 11 Oeste 0 1014.9 1.4 52
2019-09-26 21:00:00 24.6 9 Oeste 18 Oeste 0 1014.2 0.8 43
2019-09-26 20:00:00 27.6 15 Oeste 24 Oeste 0 1014 0.2 38
2019-09-26 19:00:00 31.1 14 Sudoeste 24 Sudoeste 0 1013.5 -0.6 32
2019-09-26 18:00:00 32.2 13 Sudoeste 26 Oeste 0 1013.4 -1.1 32
2019-09-26 17:00:00 32.3 14 Sudoeste 30 Sur 0 1013.8 -1.4 33
2019-09-26 16:00:00 32.5 10 Sur 22 Sudoeste 0 1014.1 -1.7 30
2019-09-26 15:00:00 31.6 12 Sudoeste 24 Sudoeste 0 1014.5 -1.6 34
2019-09-26 14:00:00 29.5 8 Sudoeste 17 Sudoeste 0 1015.2 -0.7 38
2019-09-26 13:00:00 27.6 6 Sudoeste 17 Sur 0 1015.8 0.4 48
2019-09-26 12:00:00 25.1 4 Noroeste 9 Sudoeste 0 1016.1 1.1 50
2019-09-26 11:00:00 21.6 4 Este 8 Sudeste 0 1015.9 1.5 65
2019-09-26 10:00:00 17.2 4 Nordeste 8 Nordeste 0 1015.4 1.5 78
2019-09-26 09:00:00 12.6 4 Nordeste -- -- 0 1015 1 87
2019-09-26 08:00:00 11.7 5 Este -- -- 0 1014.4 0.5 89
2019-09-26 07:00:00 12.3 4 Norte -- -- 0 1013.9 0.2 88
2019-09-26 06:00:00 12.5 6 Norte 8 Norte 0 1014 0.4 88
2019-09-26 05:00:00 13 5 Norte 5 Norte 0 1013.9 0 87
2019-09-26 04:00:00 14.4 3 Nordeste 5 Nordeste 0 1013.7 -0.4 86
2019-09-26 03:00:00 15.1 3 Este -- -- 0 1013.6 -0.3 85
2019-09-26 02:00:00 15.3 6 Nordeste 11 Nordeste 0 1013.9 -0.2 82
2019-09-26 01:00:00 16.4 9 Nordeste 11 Nordeste 0 1014.1 0.2 81
2019-09-26 00:00:00 18 6 Este 8 Este 0 1013.9 0.4 78
2019-09-25 23:00:00 19.8 5 Sudeste 13 Oeste 0 1014.1 0.8 73
2019-09-25 22:00:00 21.4 3 Oeste 17 Oeste 0 1013.9 0.7 71
2019-09-25 21:00:00 23.3 10 Oeste 21 Oeste 0 1013.5 0.2 59
2019-09-25 20:00:00 26.2 12 Oeste 22 Oeste 0 1013.3 -0.2 43
2019-09-25 19:00:00 28.1 17 Oeste 26 Oeste 0 1013.2 -0.5 38
2019-09-25 18:00:00 29.4 15 Oeste 28 Oeste 0 1013.3 -1 38
2019-09-25 17:00:00 30.3 14 Oeste 26 Oeste 0 1013.5 -1.6 38
2019-09-25 16:00:00 30.6 15 Noroeste 30 Oeste 0 1013.7 -2 36
2019-09-25 15:00:00 30 10 Oeste 21 Oeste 0 1014.3 -1.7 34
2019-09-25 14:00:00 28.4 10 Noroeste 22 Nordeste 0 1015.1 -0.8 42
2019-09-25 13:00:00 27 9 Norte 22 Norte 0 1015.7 0.2 49
2019-09-25 12:00:00 26 15 Norte 30 Noroeste 0 1016 0.8 50
2019-09-25 11:00:00 24.3 19 Norte 30 Norte 0 1015.9 1.2 55
2019-09-25 10:00:00 20.8 7 Noroeste 17 Noroeste 0 1015.5 1 76
2019-09-25 09:00:00 18.1 11 Noroeste 18 Noroeste 0 1015.2 0.8 88
2019-09-25 08:00:00 17.5 12 Noroeste 22 Noroeste 0 1014.7 0.3 89
2019-09-25 07:00:00 16.8 6 Noroeste 9 Oeste 0 1014.5 -0.4 85
2019-09-25 06:00:00 16.2 0 Calma 2 Sur 0 1014.4 -0.7 83
2019-09-25 05:00:00 16.6 2 Sur -- -- 0 1014.4 -0.7 82
2019-09-25 04:00:00 16.7 4 Norte -- -- 0 1014.9 -0.5 84
2019-09-25 03:00:00 16.7 4 Norte 8 Este 0 1015.1 -0.5 83
2019-09-25 02:00:00 17.1 5 Norte 9 Este 0 1015.1 -0.2 83
2019-09-25 01:00:00 18.1 2 Nordeste 9 Este 0 1015.4 0.1 79
2019-09-25 00:00:00 19.7 5 Este 13 Este 0 1015.6 0.9 73
2019-09-24 23:00:00 21 0 Calma 13 Oeste 0 1015.3 1 68
2019-09-24 22:00:00 22.4 4 Oeste 26 Oeste 0 1015.3 1 64
2019-09-24 21:00:00 23.9 15 Oeste 26 Oeste 0 1014.7 0.5 63
2019-09-24 20:00:00 27.7 15 Oeste 30 Oeste 0 1014.3 0.1 39
2019-09-24 19:00:00 29.4 21 Oeste 32 Oeste 0 1014.3 -0.7 34
2019-09-24 18:00:00 30.9 19 Oeste 39 Oeste 0 1014.2 -1.3 31
2019-09-24 17:00:00 33.6 9 Noroeste 21 Oeste -- 1014.2 -2.2 22
2019-09-24 16:00:00 33.1 11 Noroeste 21 Sudoeste 0 1015 -2 25
2019-09-24 15:00:00 31.6 6 Norte 21 Norte 0 1015.5 -2 28
2019-09-24 14:00:00 30.4 8 Noroeste 17 Noroeste 0 1016.4 -1.1 32
2019-09-24 13:00:00 28.3 6 Noroeste 21 Oeste 0 1017 -0.1 41
2019-09-24 12:00:00 25.5 9 Noroeste 17 Noroeste 0 1017.5 0.8 49
2019-09-24 11:00:00 22.2 4 Noroeste 13 Noroeste 0 1017.5 1.4 62
2019-09-24 10:00:00 17.7 2 Sur 9 Norte 0 1017.1 1.2 76
2019-09-24 09:00:00 12.9 3 Nordeste 5 Nordeste 0 1016.7 0.8 89
2019-09-24 08:00:00 11.6 4 Norte 8 Nordeste 0 1016.1 0.1 93
2019-09-24 07:00:00 12.1 4 Nordeste 8 Nordeste 0 1015.9 -0.3 92
2019-09-24 06:00:00 12.1 5 Nordeste -- -- 0 1015.9 -0.6 91
2019-09-24 05:00:00 12.6 4 Norte -- -- 0 1016 -0.7 89
2019-09-24 04:00:00 13 5 Nordeste 8 Este 0 1016.2 -0.6 90
2019-09-24 03:00:00 14.2 0 Calma 5 Este 0 1016.5 -0.3 91
2019-09-24 02:00:00 15.3 0 Calma 5 Sudeste 0 1016.7 0 89
2019-09-24 01:00:00 16.1 3 Este 8 Este 0 1016.8 0.5 86
2019-09-24 00:00:00 18.4 6 Este 11 Norte 0 1016.8 1 83
2019-09-23 23:00:00 19.5 9 Norte 13 Norte -- 1016.7 1.3 80
2019-09-23 22:00:00 20.9 9 Noroeste 24 Noroeste 0 1016.3 1.2 72
2019-09-23 21:00:00 23.1 16 Oeste 28 Noroeste 0 1015.8 0.6 55
2019-09-23 20:00:00 25.7 20 Oeste 30 Oeste 0 1015.4 -0.1 46
2019-09-23 19:00:00 28.5 17 Oeste 26 Oeste 0 1015.1 -0.7 40
2019-09-23 18:00:00 30.5 14 Noroeste 26 Noroeste 0 1015.2 -0.9 29
2019-09-23 17:00:00 30.5 14 Norte 33 Norte 0 1015.5 -1.1 28
2019-09-23 16:00:00 30.2 19 Noroeste 32 Noroeste 0 1015.8 -1.1 31
2019-09-23 15:00:00 29.3 18 Norte 32 Norte 0 1016.1 -1.4 33
2019-09-23 14:00:00 28.1 15 Norte 30 Norte 0 1016.6 -0.9 40
2019-09-23 13:00:00 26.7 15 Norte 30 Norte 0 1016.9 -0.4 49
2019-09-23 12:00:00 23.6 19 Norte 35 Noroeste 0 1017.5 0.9 62
2019-09-23 11:00:00 21.1 13 Norte 28 Noroeste 0 1017.5 1.1 81
2019-09-23 10:00:00 17.9 13 Norte 28 Norte 0 1017.3 1.5 94
2019-09-23 09:00:00 13.2 3 Norte 9 Norte 0 1016.6 1 99
2019-09-23 08:00:00 12.5 5 Este -- -- 0 1016.4 1 99
2019-09-23 07:00:00 12.7 2 Norte 4 Norte 0 1015.8 0.5 99
2019-09-23 06:00:00 13.2 0 Calma -- -- 0 1015.6 0.1 98
2019-09-23 05:00:00 13.8 3 Nordeste 8 Norte 0 1015.4 -0.4 97
2019-09-23 04:00:00 14.2 7 Norte 9 Norte 0 1015.3 -0.7 96
2019-09-23 03:00:00 15.6 3 Nordeste 9 Este 0 1015.5 -0.4 96
2019-09-23 02:00:00 15.9 5 Nordeste 9 Nordeste 0 1015.8 -0.1 95
2019-09-23 01:00:00 17.3 7 Este 9 Este 0 1016 0.5 94
2019-09-23 00:00:00 18.1 5 Este 13 Oeste 0 1015.9 1.3 90
2019-09-22 23:00:00 20 5 Oeste 13 Sudoeste 0 1015.9 1.9 84
2019-09-22 22:00:00 20.6 8 Oeste 28 Oeste 0 1015.5 1.9 82
2019-09-22 21:00:00 21.3 15 Oeste 30 Oeste 0 1014.6 1 77
2019-09-22 20:00:00 22.6 19 Oeste 30 Oeste 0 1014 0.4 69
2019-09-22 19:00:00 23.8 18 Oeste 32 Oeste 0 1013.6 0.1 63
2019-09-22 18:00:00 25.9 19 Oeste 32 Oeste 0 1013.6 0 57
2019-09-22 17:00:00 26.8 19 Oeste 30 Oeste 0 1013.6 -0.2 51
2019-09-22 16:00:00 26.3 17 Oeste 30 Oeste 0 1013.5 -0.5 53
2019-09-22 15:00:00 26 15 Oeste 30 Oeste 0 1013.6 -0.2 47
2019-09-22 14:00:00 26 15 Oeste 28 Oeste 0 1013.8 0.3 42
2019-09-22 13:00:00 24.8 16 Oeste 32 Oeste 0 1014 0.8 48
2019-09-22 12:00:00 22.9 14 Oeste 24 Sudoeste 0 1013.8 1.4 62
2019-09-22 11:00:00 21.4 15 Oeste 22 Oeste 0 1013.5 1.9 84
2019-09-22 10:00:00 20.2 9 Sudoeste 21 Sudoeste 0.3 1013.2 2.2 96
2019-09-22 09:00:00 20.1 14 Oeste 26 Sudoeste 0.3 1012.4 1.6 96
2019-09-22 08:00:00 20.8 12 Sudoeste 24 Sudoeste 2 1011.6 0.5 98
2019-09-22 07:00:00 21.3 14 Sur 21 Sur 0 1011 -0.5 93
2019-09-22 06:00:00 20.8 8 Sudeste 13 Sudeste 0 1010.8 -0.9 91
2019-09-22 05:00:00 20.5 8 Sur 15 Sur 0 1011.1 -0.5 91
2019-09-22 04:00:00 20.7 11 Sur 18 Sudeste 0 1011.5 -0.3 90
2019-09-22 03:00:00 20.3 9 Sur 17 Sur 0 1011.7 -0.4 92
2019-09-22 02:00:00 20.2 8 Sur 13 Sur 0 1011.6 -0.7 91
2019-09-22 01:00:00 20.7 10 Sur 13 Sudeste 0 1011.8 0.4 89
2019-09-22 00:00:00 21.4 7 Sur 13 Sudeste 0 1012.1 0.9 86
2019-09-21 23:00:00 21.4 8 Sur 9 Sur 0 1012.3 1.8 85
2019-09-21 22:00:00 21.9 6 Sudoeste 17 Oeste 0 1011.4 0.6 85
2019-09-21 21:00:00 22.2 10 Sudoeste 15 Sudoeste 0 1011.2 0 79
2019-09-21 20:00:00 22.8 10 Sur 24 Sudoeste 0 1010.5 -0.3 72
2019-09-21 19:00:00 24.2 17 Sudoeste 24 Sudoeste 0 1010.8 0.1 68
2019-09-21 18:00:00 22.9 17 Sudoeste 28 Sudoeste 0.1 1011.2 0.1 77
2019-09-21 17:00:00 23.3 17 Sudoeste 24 Sudoeste 0 1010.8 -0.7 72
2019-09-21 16:00:00 24.2 14 Sudoeste 24 Sudoeste 0 1010.7 -1.5 66
2019-09-21 15:00:00 25.2 15 Sudoeste 21 Sur 0 1011.1 -1.1 60
2019-09-21 14:00:00 25.4 10 Sur 22 Sudoeste 0 1011.5 -0.7 55
2019-09-21 13:00:00 24.4 13 Sur 21 Sur 0 1012.2 0.9 62
2019-09-21 12:00:00 23.6 12 Sur 21 Sur 0 1012.2 1.2 68
2019-09-21 11:00:00 21.7 11 Sur 17 Sur 0 1012.2 1.8 80
2019-09-21 10:00:00 20.1 6 Sur 9 Sur 0 1011.3 0.8 84
2019-09-21 09:00:00 18.4 4 Este 5 Este 0 1011 0.7 92
2019-09-21 08:00:00 18.2 -- -- -- -- 0 1010.4 -0.4 91
2019-09-21 07:00:00 18.5 3 Sudoeste 8 Sur 0 1010.5 -0.4 89
2019-09-21 06:00:00 19 4 Sudeste -- -- 0 1010.3 -0.8 88
2019-09-21 05:00:00 19.6 4 Sudoeste 9 Sur 0 1010.8 -0.6 86
2019-09-21 04:00:00 19.9 6 Sur 8 Sur 0 1010.9 -0.9 86
2019-09-21 03:00:00 20.3 4 Sur 13 Sur 0 1011.1 -0.8 83
2019-09-21 02:00:00 21.1 8 Sur 13 Oeste 0 1011.4 -0.5 80
2019-09-21 01:00:00 21.4 11 Sudoeste 15 Sudoeste 0 1011.8 0.3 81
2019-09-21 00:00:00 21.6 12 Sudoeste 18 Sudoeste 0 1011.9 1.3 80
2019-09-20 23:00:00 21.6 13 Sudoeste 24 Sudoeste 0 1011.9 1.2 82
2019-09-20 22:00:00 22.1 19 Sudoeste 28 Oeste 0 1011.5 0.8 82
2019-09-20 21:00:00 22.6 10 Sur 17 Sur 0 1010.6 0.1 70
2019-09-20 20:00:00 24.1 10 Sudoeste 24 Sudoeste 0 1010.7 0 62
2019-09-20 19:00:00 25 18 Sur 26 Sur 0 1010.7 -0.1 62
2019-09-20 18:00:00 26.2 17 Sudoeste 32 Sudoeste 0 1010.5 -0.6 58
2019-09-20 17:00:00 25.7 21 Sudoeste 32 Sudoeste 0 1010.7 -0.8 60
2019-09-20 16:00:00 26.3 23 Sudoeste 33 Sudoeste 0 1010.8 -1.2 64
2019-09-20 15:00:00 26.6 19 Sudoeste 33 Sudoeste 0 1011.1 -1.2 62
2019-09-20 14:00:00 25.1 15 Sudoeste 24 Sur 0 1011.5 -0.6 68
2019-09-20 13:00:00 24.7 14 Sudoeste 22 Sudoeste 0 1012 0.1 69
2019-09-20 12:00:00 23.8 5 Sudoeste 11 Sur 0 1012.3 0.8 68
2019-09-20 11:00:00 22.1 5 Nordeste 9 Este 0 1012.1 1 74
2019-09-20 10:00:00 19.9 4 Este 5 Este 0 1011.9 1.1 82
2019-09-20 09:00:00 17.9 6 Este 11 Este 0 1011.5 0.4 86
2019-09-20 08:00:00 17.2 6 Nordeste 9 Nordeste 0 1011.1 -0.4 86
2019-09-20 07:00:00 17.1 7 Este -- -- 0 1010.8 -1 88
2019-09-20 06:00:00 16.3 4 Norte 9 Este 0 1011.1 -1.1 89
2019-09-20 05:00:00 16.2 3 Este 8 Este 0 1011.5 -1 90
2019-09-20 04:00:00 16.5 7 Este 9 Este 0 1011.8 -0.7 89
2019-09-20 03:00:00 16.9 2 Este 8 Este 0 1012.2 -0.5 87
2019-09-20 02:00:00 17.3 4 Nordeste 8 Este 0 1012.5 -0.3 84
2019-09-20 01:00:00 18.5 5 Nordeste 8 Nordeste 0 1012.5 0.3 82
2019-09-20 00:00:00 20.6 5 Sudoeste 11 Sudoeste 0 1012.7 1.1 76
2019-09-19 23:00:00 20.9 6 Sudoeste 13 Sudoeste 0 1012.8 1.4 73
2019-09-19 22:00:00 22 6 Oeste 13 Oeste 0 1012.2 0.8 67
2019-09-19 21:00:00 23.3 10 Oeste 18 Oeste 0 1011.6 0.2 61
2019-09-19 20:00:00 25.2 13 Oeste 22 Sudoeste 0 1011.4 -0.1 53
2019-09-19 19:00:00 27.1 17 Oeste 26 Sudoeste 0 1011.4 -0.4 47
2019-09-19 18:00:00 28 18 Oeste 30 Oeste 0 1011.4 -1.2 46
2019-09-19 17:00:00 29.1 13 Sudoeste 28 Oeste 0 1011.5 -1.8 42
2019-09-19 16:00:00 29.6 11 Sudoeste 26 Sur 0 1011.8 -1.9 42
2019-09-19 15:00:00 29.1 9 Sur 21 Sur 0 1012.6 -1.4 43
2019-09-19 14:00:00 27.8 12 Sur 24 Sudoeste 0 1013.3 -0.6 52
2019-09-19 13:00:00 26.7 8 Sudoeste 22 Sur 0 1013.7 0.1 56
2019-09-19 12:00:00 25.1 12 Sudoeste 21 Sudoeste 0 1014 0.6 65
2019-09-19 11:00:00 22.8 12 Sur 18 Sur 0 1013.9 0.8 77
2019-09-19 10:00:00 20.4 9 Sudeste 17 Este 0 1013.6 0.6 88
2019-09-19 09:00:00 17.5 7 Este 13 Este 0 1013.4 0.6 97
2019-09-19 08:00:00 15.3 6 Este 9 Este 0 1013.1 0.2 97
2019-09-19 07:00:00 15.9 6 Sudeste 11 Sudeste 0 1013 -0.1 95
2019-09-19 06:00:00 15.6 5 Este 8 Este 0 1012.8 -0.8 95
2019-09-19 05:00:00 15.8 5 Este 11 Este 0 1012.9 -1.1 95
2019-09-19 04:00:00 14.9 6 Nordeste 9 Este 0 1013.1 -0.9 95
2019-09-19 03:00:00 15.6 0 Calma -- -- 0 1013.6 -0.4 94
2019-09-19 02:00:00 15.6 3 Este 8 Este 0 1014 0.2 93
2019-09-19 01:00:00 16.6 4 Sudeste 5 Sudeste 0 1014 0.4 87
2019-09-19 00:00:00 17.4 3 Sur 5 Sur 0 1014 0.8 85
2019-09-18 23:00:00 19.4 0 Calma 9 Sudoeste 0 1013.8 1.1 81
2019-09-18 22:00:00 20.9 8 Sudoeste 17 Oeste 0 1013.6 1.2 77
2019-09-18 21:00:00 22 15 Sudoeste 24 Sudoeste 0 1013.2 1.1 73
2019-09-18 20:00:00 24.7 16 Sudoeste 24 Sudoeste 0 1012.7 0.2 61
2019-09-18 19:00:00 27.3 16 Sudoeste 24 Sudoeste 0 1012.4 -0.2 47
2019-09-18 18:00:00 28.4 14 Sudoeste 26 Sudoeste 0 1012.1 -1 42
2019-09-18 17:00:00 28.8 18 Sudoeste 28 Oeste 0 1012.5 -1.2 44
2019-09-18 16:00:00 29.1 12 Sudoeste 33 Sudoeste 0 1012.6 -1.2 42
2019-09-18 15:00:00 28.9 15 Sudoeste 26 Sudoeste 0 1013.1 -0.8 45
2019-09-18 14:00:00 27.8 12 Sudoeste 24 Sudoeste 0 1013.7 0 53
2019-09-18 13:00:00 26.4 13 Sudoeste 26 Sudoeste 0 1013.8 0.6 60
2019-09-18 12:00:00 25.5 13 Sur 24 Sur 0 1013.9 0.9 64
2019-09-18 11:00:00 23.6 14 Sur 21 Sur 0 1013.7 1.2 73
2019-09-18 10:00:00 19.9 7 Sur 13 Sur 0 1013.2 1.2 93
2019-09-18 09:00:00 17 6 Sudoeste -- -- 0 1013 1.1 98
2019-09-18 08:00:00 15.6 4 Nordeste 8 Nordeste 0 1012.5 0.5 97
2019-09-18 07:00:00 15.4 4 Este 8 Este 0 1012 -0.2 96
2019-09-18 06:00:00 15.8 4 Este 5 Este 0 1011.9 -0.7 96
2019-09-18 05:00:00 16 4 Oeste -- -- 0 1012 -0.8 95
2019-09-18 04:00:00 16.6 3 Este 5 Este 0 1012.2 -0.6 95
2019-09-18 03:00:00 16.9 4 Este -- -- 0 1012.6 -0.2 93
2019-09-18 02:00:00 17.9 0 Calma 4 Nordeste 0 1012.8 0.5 94
2019-09-18 01:00:00 19.5 3 Sudeste 8 Sur 0 1012.8 1.2 87
2019-09-18 00:00:00 20.2 0 Calma 11 Oeste 0 1012.8 1.9 89
2019-09-17 23:00:00 21.5 8 Sudoeste 17 Sudoeste 0 1012.3 1.5 85
2019-09-17 22:00:00 22.3 12 Sudoeste 21 Sudoeste 0 1011.6 0.9 83
2019-09-17 21:00:00 23.6 14 Oeste 26 Sudoeste 0 1010.9 0.3 79